createdAt,value
2023-04-15T00:01:08.818Z,1.23
2023-04-15T00:03:36.478Z,1.20
2023-04-15T00:06:04.012Z,1.37
2023-04-15T00:08:32.290Z,1.40
2023-04-15T00:11:05.815Z,1.30
2023-04-15T00:13:34.305Z,1.50
2023-04-15T00:16:01.782Z,1.33
2023-04-15T00:18:30.122Z,1.37
2023-04-15T00:20:57.361Z,1.40
2023-04-15T00:23:44.121Z,1.30
2023-04-15T00:26:11.347Z,1.80
2023-04-15T00:28:38.771Z,1.45
2023-04-15T00:31:05.986Z,0.93
2023-04-15T00:33:33.542Z,1.17
2023-04-15T00:36:00.651Z,1.63
2023-04-15T00:38:28.231Z,1.13
2023-04-15T00:40:56.629Z,0.80
2023-04-15T00:43:23.819Z,1.83
2023-04-15T00:45:53.764Z,0.82
2023-04-15T00:48:21.011Z,1.30
2023-04-15T00:50:48.069Z,1.30
2023-04-15T00:53:15.126Z,1.23
2023-04-15T00:55:42.666Z,2.17
2023-04-15T00:58:09.862Z,0.77
2023-04-15T01:00:37.694Z,1.77
2023-04-15T01:03:04.905Z,0.93
2023-04-15T01:05:32.557Z,1.57
2023-04-15T01:07:59.672Z,1.00
2023-04-15T01:10:27.453Z,1.55
2023-04-15T01:12:54.955Z,1.20
2023-04-15T01:15:22.055Z,1.30
2023-04-15T01:17:49.580Z,1.00
2023-04-15T01:20:17.318Z,1.10
2023-04-15T01:22:45.319Z,1.23
2023-04-15T01:25:16.595Z,1.43
2023-04-15T01:27:43.794Z,1.60
2023-04-15T01:30:11.635Z,1.40
2023-04-15T01:32:38.952Z,1.40
2023-04-15T01:35:24.826Z,0.80
2023-04-15T01:37:52.709Z,1.20
2023-04-15T01:40:19.789Z,1.70
2023-04-15T01:42:48.155Z,1.23
2023-04-15T01:45:17.626Z,1.50
2023-04-15T01:47:46.027Z,1.27
2023-04-15T01:50:14.446Z,1.77
2023-04-15T01:52:43.526Z,1.77
2023-04-15T01:55:12.638Z,2.00
2023-04-15T01:57:41.263Z,1.60
2023-04-15T02:00:10.050Z,1.10
2023-04-15T02:02:44.960Z,1.30
2023-04-15T02:05:13.470Z,1.10
2023-04-15T02:07:43.640Z,1.70
2023-04-15T02:10:13.675Z,1.30
2023-04-15T02:12:42.265Z,0.80
2023-04-15T02:15:11.036Z,1.50
2023-04-15T02:17:39.463Z,1.13
2023-04-15T02:20:10.808Z,1.20
2023-04-15T02:22:39.305Z,1.20
2023-04-15T02:25:09.510Z,0.87
2023-04-15T02:27:38.484Z,1.23
2023-04-15T02:30:09.372Z,0.77
2023-04-15T02:32:38.425Z,1.40
2023-04-15T02:35:08.932Z,1.00
2023-04-15T02:37:43.579Z,1.30
2023-04-15T02:40:13.538Z,1.23
2023-04-15T02:42:43.039Z,0.90
2023-04-15T02:45:14.288Z,1.13
2023-04-15T02:47:44.588Z,0.97
2023-04-15T02:50:14.157Z,1.13
2023-04-15T02:55:13.425Z,1.07
2023-04-15T02:57:42.049Z,1.27
2023-04-15T03:00:12.660Z,1.20
2023-04-15T03:02:44.813Z,0.90
2023-04-15T03:05:14.639Z,1.50
2023-04-15T03:07:52.088Z,2.20
2023-04-15T03:10:21.527Z,1.30
2023-04-15T03:12:50.100Z,1.07
2023-04-15T03:17:53.351Z,1.70
2023-04-15T03:20:21.884Z,0.67
2023-04-15T03:22:50.662Z,1.07
2023-04-15T03:25:21.149Z,1.05
2023-04-15T03:27:49.518Z,1.20
2023-04-15T03:30:18.737Z,1.70
2023-04-15T03:32:47.715Z,1.50
2023-04-15T03:35:16.606Z,1.80
2023-04-15T03:37:45.032Z,1.87
2023-04-15T03:40:13.444Z,1.97
2023-04-15T03:42:41.815Z,1.87
2023-04-15T03:45:10.969Z,1.80
2023-04-15T03:47:39.350Z,1.47
2023-04-15T03:50:08.474Z,1.90
2023-04-15T03:52:36.874Z,2.80
2023-04-15T03:55:05.626Z,2.17
2023-04-15T03:57:38.158Z,3.20
2023-04-15T04:00:07.847Z,1.53
2023-04-15T04:02:40.410Z,1.67
2023-04-15T04:05:09.449Z,2.17
2023-04-15T04:07:37.850Z,1.53
2023-04-15T04:10:06.974Z,2.13
2023-04-15T04:12:35.396Z,1.97
2023-04-15T04:15:04.147Z,1.87
2023-04-15T04:17:32.892Z,2.03
2023-04-15T04:20:01.320Z,1.60
2023-04-15T04:22:29.725Z,1.57
2023-04-15T04:24:59.556Z,1.70
2023-04-15T04:27:27.902Z,2.07
2023-04-15T04:29:56.506Z,1.63
2023-04-15T04:32:25.009Z,1.73
2023-04-15T04:34:53.430Z,1.70
2023-04-15T04:37:21.850Z,1.23
2023-04-15T04:39:50.366Z,1.30
2023-04-15T04:42:18.770Z,1.40
2023-04-15T04:44:47.327Z,1.50
2023-04-15T04:47:15.746Z,1.57
2023-04-15T04:49:44.174Z,0.98
2023-04-15T04:52:13.070Z,1.27
2023-04-15T04:54:41.713Z,1.37
2023-04-15T04:57:10.075Z,1.50
2023-04-15T04:59:38.388Z,1.63
2023-04-15T05:02:07.442Z,1.17
2023-04-15T05:04:37.117Z,2.13
2023-04-15T05:07:05.451Z,1.20
2023-04-15T05:09:36.216Z,3.03
2023-04-15T05:12:05.099Z,1.42
2023-04-15T05:14:33.481Z,1.25
2023-04-15T05:17:01.850Z,1.67
2023-04-15T05:19:30.494Z,1.42
2023-04-15T05:21:58.843Z,1.50
2023-04-15T05:24:27.441Z,1.20
2023-04-15T05:26:56.897Z,1.30
2023-04-15T05:29:25.232Z,0.83
2023-04-15T05:31:53.551Z,1.07
2023-04-15T05:34:21.859Z,2.08
2023-04-15T05:36:50.606Z,0.93
2023-04-15T05:39:19.018Z,1.70
2023-04-15T05:41:47.387Z,1.70
2023-04-15T05:44:15.779Z,1.67
2023-04-15T05:46:44.193Z,1.50
2023-04-15T05:49:12.592Z,2.40
2023-04-15T05:51:41.535Z,1.33
2023-04-15T05:54:09.968Z,1.50
2023-04-15T05:56:38.298Z,1.05
2023-04-15T05:59:06.780Z,1.60
2023-04-15T06:01:35.665Z,1.38
2023-04-15T06:04:04.153Z,1.50
2023-04-15T06:06:32.781Z,1.00
2023-04-15T06:09:01.325Z,1.50
2023-04-15T06:11:29.901Z,1.15
2023-04-15T06:13:58.218Z,1.55
2023-04-15T06:16:27.444Z,0.80
2023-04-15T06:18:55.903Z,0.90
2023-04-15T06:21:24.354Z,1.10
2023-04-15T06:23:53.427Z,1.10
2023-04-15T06:26:22.132Z,1.70
2023-04-15T06:28:50.700Z,1.60
2023-04-15T06:31:19.147Z,1.50
2023-04-15T06:33:47.628Z,2.15
2023-04-15T06:36:15.987Z,1.77
2023-04-15T06:38:44.349Z,1.30
2023-04-15T06:41:12.915Z,1.55
2023-04-15T06:43:41.337Z,1.65
2023-04-15T06:46:09.730Z,1.52
2023-04-15T06:48:38.209Z,1.73
2023-04-15T06:51:06.727Z,1.58
2023-04-15T06:53:35.738Z,2.58
2023-04-15T06:56:04.193Z,2.10
2023-04-15T06:58:32.542Z,1.35
2023-04-15T07:01:01.305Z,2.42
2023-04-15T07:03:31.443Z,1.05
2023-04-15T07:06:01.853Z,2.75
2023-04-15T07:08:30.652Z,1.70
2023-04-15T07:10:59.059Z,1.95
2023-04-15T07:13:27.748Z,1.70
2023-04-15T07:15:56.177Z,1.98
2023-04-15T07:18:24.578Z,1.77
2023-04-15T07:20:52.998Z,1.63
2023-04-15T07:23:21.346Z,1.60
2023-04-15T07:25:49.682Z,1.60
2023-04-15T07:28:18.399Z,1.30
2023-04-15T07:30:46.815Z,1.90
2023-04-15T07:33:17.952Z,1.58
2023-04-15T07:35:46.910Z,1.35
2023-04-15T07:38:15.240Z,1.52
2023-04-15T07:40:43.771Z,1.85
2023-04-15T07:43:13.582Z,2.00
2023-04-15T07:45:41.980Z,1.80
2023-04-15T07:48:10.322Z,1.75
2023-04-15T07:50:38.753Z,1.95
2023-04-15T07:53:07.633Z,1.42
2023-04-15T07:55:36.066Z,1.80
2023-04-15T07:58:04.568Z,1.27
2023-04-15T08:00:32.882Z,2.00
2023-04-15T08:03:01.482Z,1.70
2023-04-15T08:05:30.409Z,2.47
2023-04-15T08:07:58.858Z,1.20
2023-04-15T08:10:27.499Z,2.08
2023-04-15T08:12:56.878Z,1.80
2023-04-15T08:15:26.758Z,1.60
2023-04-15T08:17:55.165Z,1.85
2023-04-15T08:20:23.783Z,1.48
2023-04-15T08:22:52.752Z,1.17
2023-04-15T08:25:21.686Z,1.42
2023-04-15T08:27:50.127Z,1.90
2023-04-15T08:30:19.488Z,1.90
2023-04-15T08:32:48.117Z,1.88
2023-04-15T08:35:16.838Z,2.63
2023-04-15T08:37:45.395Z,1.83
2023-04-15T08:40:14.278Z,1.98
2023-04-15T08:42:48.373Z,1.60
2023-04-15T08:45:18.469Z,2.05
2023-04-15T08:47:49.470Z,1.38
2023-04-15T08:50:18.948Z,1.67
2023-04-15T08:52:47.358Z,1.88
2023-04-15T08:55:16.370Z,1.67
2023-04-15T08:57:45.047Z,1.75
2023-04-15T09:00:14.289Z,1.90
2023-04-15T09:02:43.425Z,1.83
2023-04-15T09:05:11.907Z,2.03
2023-04-15T09:07:40.206Z,1.60
2023-04-15T09:10:10.049Z,1.70
2023-04-15T09:12:38.517Z,1.80
2023-04-15T09:15:08.947Z,2.30
2023-04-15T09:17:43.263Z,1.75
2023-04-15T09:20:14.238Z,1.80
2023-04-15T09:25:34.994Z,1.30
2023-04-15T09:28:04.260Z,2.20
2023-04-15T09:30:33.529Z,3.45
2023-04-15T09:33:03.156Z,2.10
2023-04-15T09:35:31.634Z,1.70
2023-04-15T09:38:08.072Z,2.03
2023-04-15T09:40:37.594Z,2.15
2023-04-15T09:43:07.178Z,2.35
2023-04-15T09:45:36.689Z,1.85
2023-04-15T09:48:29.110Z,1.50
2023-04-15T09:51:01.946Z,1.52
2023-04-15T09:53:34.388Z,1.60
2023-04-15T09:56:03.399Z,1.40
2023-04-15T09:58:33.747Z,1.90
2023-04-15T10:01:05.131Z,2.15
2023-04-15T10:03:37.747Z,1.77
2023-04-15T10:06:06.405Z,2.22
2023-04-15T10:08:35.073Z,2.10
2023-04-15T10:11:05.152Z,2.08
2023-04-15T10:13:36.217Z,2.63
2023-04-15T10:18:43.412Z,2.30
2023-04-15T10:21:14.002Z,1.80
2023-04-15T10:23:42.872Z,1.67
2023-04-15T10:26:12.817Z,2.00
2023-04-15T10:28:42.190Z,2.07
2023-04-15T10:31:15.188Z,2.47
2023-04-15T10:33:44.942Z,2.15
2023-04-15T10:36:13.964Z,1.95
2023-04-15T10:38:45.779Z,1.73
2023-04-15T10:41:28.073Z,2.10
2023-04-15T10:44:04.742Z,2.22
2023-04-15T10:46:40.509Z,2.25
2023-04-15T10:49:13.261Z,1.45
2023-04-15T10:51:44.509Z,1.75
2023-04-15T10:54:26.036Z,1.50
2023-04-15T10:57:06.649Z,1.90
2023-04-15T10:59:59.719Z,1.75
2023-04-15T11:02:47.650Z,1.95
2023-04-15T11:05:17.450Z,2.00
2023-04-15T11:07:55.407Z,1.52
2023-04-15T11:10:26.637Z,2.03
2023-04-15T11:12:58.553Z,1.90
2023-04-15T11:15:33.922Z,2.28
2023-04-15T11:18:16.613Z,2.50
2023-04-15T11:20:55.024Z,1.50
2023-04-15T11:23:39.881Z,1.83
2023-04-15T11:26:11.934Z,2.13
2023-04-15T11:28:42.859Z,1.77
2023-04-15T11:31:12.400Z,1.95
2023-04-15T11:33:59.199Z,2.10
2023-04-15T11:36:32.240Z,2.42
2023-04-15T11:39:01.023Z,2.40
2023-04-15T11:41:29.490Z,3.03
2023-04-15T11:43:57.845Z,1.80
2023-04-15T11:46:31.910Z,1.27
2023-04-15T11:49:00.439Z,1.60
2023-04-15T11:51:33.555Z,2.65
2023-04-15T11:54:01.300Z,1.30
2023-04-15T11:56:29.041Z,1.55
2023-04-15T11:58:59.886Z,1.70
2023-04-15T12:01:36.567Z,1.58
2023-04-15T12:04:12.174Z,1.20
2023-04-15T12:06:39.645Z,1.85
2023-04-15T12:09:06.813Z,2.03
2023-04-15T12:11:41.675Z,1.65
2023-04-15T12:14:20.234Z,2.13
2023-04-15T12:16:58.126Z,2.10
2023-04-15T12:19:30.315Z,1.60
2023-04-15T12:22:00.993Z,2.50
2023-04-15T12:27:03.729Z,2.30
2023-04-15T12:29:31.271Z,2.17
2023-04-15T12:32:05.147Z,1.80
2023-04-15T12:34:41.137Z,2.10
2023-04-15T12:37:10.355Z,2.42
2023-04-15T12:39:39.843Z,2.30
2023-04-15T12:42:07.831Z,1.90
2023-04-15T12:44:36.390Z,1.55
2023-04-15T12:47:03.704Z,2.08
2023-04-15T12:49:31.170Z,2.00
2023-04-15T12:52:00.297Z,2.13
2023-04-15T12:54:28.837Z,1.50
2023-04-15T12:56:56.232Z,1.83
2023-04-15T12:59:24.294Z,2.45
2023-04-15T13:01:53.515Z,1.73
2023-04-15T13:04:22.077Z,1.67
2023-04-15T13:06:49.596Z,2.53
2023-04-15T13:09:16.923Z,1.50
2023-04-15T13:11:44.185Z,1.83
2023-04-15T13:14:14.272Z,2.97
2023-04-15T13:16:41.757Z,2.38
2023-04-15T13:19:09.136Z,2.40
2023-04-15T13:21:36.806Z,3.70
2023-04-15T13:24:07.255Z,2.40
2023-04-15T13:26:34.649Z,2.47
2023-04-15T13:29:02.045Z,2.70
2023-04-15T13:31:29.261Z,3.20
2023-04-15T13:33:57.638Z,2.03
2023-04-15T13:36:24.990Z,4.05
2023-04-15T13:38:52.198Z,2.28
2023-04-15T13:41:20.203Z,2.60
2023-04-15T13:43:47.440Z,2.80
2023-04-15T13:46:14.832Z,2.22
2023-04-15T13:48:42.306Z,2.70
2023-04-15T13:51:09.723Z,2.60
2023-04-15T13:53:38.890Z,3.05
2023-04-15T13:56:08.612Z,2.88
2023-04-15T13:58:37.500Z,3.42
2023-04-15T14:01:07.005Z,2.70
2023-04-15T14:03:36.812Z,3.00
2023-04-15T14:06:05.827Z,2.05
2023-04-15T14:08:33.764Z,2.33
2023-04-15T14:11:01.339Z,2.70
2023-04-15T14:13:28.649Z,2.55
2023-04-15T14:15:57.296Z,2.97
2023-04-15T14:18:24.596Z,2.13
2023-04-15T14:20:51.966Z,2.85
2023-04-15T14:23:19.527Z,3.20
2023-04-15T14:25:48.394Z,3.00
2023-04-15T14:28:16.345Z,3.17
2023-04-15T14:30:43.847Z,2.40
2023-04-15T14:33:11.389Z,3.05
2023-04-15T14:35:39.254Z,2.70
2023-04-15T14:38:10.750Z,3.05
2023-04-15T14:40:38.306Z,1.77
2023-04-15T14:43:05.641Z,1.80
2023-04-15T14:45:32.890Z,2.20
2023-04-15T14:48:00.324Z,1.98
2023-04-15T14:50:28.279Z,1.95
2023-04-15T14:52:55.573Z,2.13
2023-04-15T14:55:22.777Z,1.77
2023-04-15T14:57:49.969Z,2.80
2023-04-15T15:00:17.226Z,1.95
2023-04-15T15:02:44.654Z,2.13
2023-04-15T15:05:12.460Z,2.03
2023-04-15T15:07:41.222Z,1.70
2023-04-15T15:10:09.053Z,2.20
2023-04-15T15:12:36.437Z,1.85
2023-04-15T15:15:15.641Z,2.20
2023-04-15T15:17:54.387Z,2.00
2023-04-15T15:20:22.137Z,2.05
2023-04-15T15:22:49.421Z,1.60
2023-04-15T15:25:16.939Z,1.80
2023-04-15T15:27:44.325Z,1.48
2023-04-15T15:30:12.039Z,1.70
2023-04-15T15:32:43.019Z,1.50
2023-04-15T15:35:11.271Z,1.50
2023-04-15T15:37:38.536Z,1.20
2023-04-15T15:40:06.703Z,2.40
2023-04-15T15:42:34.451Z,2.83
2023-04-15T15:45:03.290Z,1.60
2023-04-15T15:50:02.634Z,2.13
2023-04-15T15:52:31.931Z,2.58
2023-04-15T15:54:59.124Z,2.78
2023-04-15T15:57:26.297Z,2.70
2023-04-15T16:00:04.839Z,2.47
2023-04-15T16:03:02.393Z,2.10
2023-04-15T16:05:25.157Z,2.30
2023-04-15T16:07:52.348Z,1.88
2023-04-15T16:10:19.521Z,2.42
2023-04-15T16:12:47.714Z,2.15
2023-04-15T16:15:15.019Z,2.00
2023-04-15T16:17:42.131Z,2.22
2023-04-15T16:20:09.879Z,2.10
2023-04-15T16:22:37.384Z,2.67
2023-04-15T16:25:04.782Z,2.28
2023-04-15T16:27:33.826Z,2.88
2023-04-15T16:30:02.786Z,2.95
2023-04-15T16:32:31.848Z,2.10
2023-04-15T16:34:59.103Z,2.40
2023-04-15T16:37:26.215Z,2.90
2023-04-15T16:39:53.356Z,2.65
2023-04-15T16:42:20.546Z,2.38
2023-04-15T16:44:47.708Z,3.00
2023-04-15T16:47:14.956Z,3.17
2023-04-15T16:49:42.176Z,2.50
2023-04-15T16:52:09.433Z,2.25
2023-04-15T16:54:41.358Z,2.58
2023-04-15T16:57:08.980Z,2.83
2023-04-15T16:59:36.129Z,3.00
2023-04-15T17:02:03.420Z,3.13
2023-04-15T17:04:30.937Z,2.83
2023-04-15T17:06:58.471Z,3.45
2023-04-15T17:09:25.596Z,3.03
2023-04-15T17:11:52.852Z,3.38
2023-04-15T17:14:20.043Z,3.40
2023-04-15T17:16:48.041Z,3.42
2023-04-15T17:19:15.364Z,3.03
2023-04-15T17:21:55.464Z,3.78
2023-04-15T17:24:24.044Z,3.88
2023-04-15T17:26:57.644Z,3.17
2023-04-15T17:29:27.179Z,4.57
2023-04-15T17:31:58.600Z,3.92
2023-04-15T17:34:50.056Z,2.83
2023-04-15T17:37:38.325Z,3.53
2023-04-15T17:40:25.379Z,4.15
2023-04-15T17:43:12.523Z,5.53
2023-04-15T17:45:59.768Z,3.65
2023-04-15T17:48:47.716Z,5.88
2023-04-15T17:51:34.746Z,5.40
2023-04-15T17:54:27.653Z,5.57
2023-04-15T17:57:14.973Z,6.43
2023-04-15T18:00:02.288Z,5.50
2023-04-15T18:02:59.628Z,5.57
2023-04-15T18:05:46.835Z,4.75
2023-04-15T18:08:33.925Z,3.15
2023-04-15T18:11:21.243Z,4.93
2023-04-15T18:14:08.311Z,5.55
2023-04-15T18:16:55.425Z,5.68
2023-04-15T18:19:43.584Z,4.15
2023-04-15T18:22:18.275Z,4.75
2023-04-15T18:24:45.447Z,4.13
2023-04-15T18:27:12.679Z,5.25
2023-04-15T18:29:39.937Z,3.08
2023-04-15T18:32:07.181Z,4.18
2023-04-15T18:34:34.500Z,2.72
2023-04-15T18:37:01.859Z,5.13
2023-04-15T18:39:29.392Z,3.90
2023-04-15T18:41:57.365Z,4.10
2023-04-15T18:44:24.547Z,4.40
2023-04-15T18:46:51.848Z,3.70
2023-04-15T18:49:19.086Z,5.20
2023-04-15T18:51:46.537Z,2.92
2023-04-15T18:54:15.005Z,4.28
2023-04-15T18:56:42.387Z,3.53
2023-04-15T18:59:28.950Z,3.13
2023-04-15T19:02:02.150Z,3.33
2023-04-15T19:04:29.860Z,3.70
2023-04-15T19:06:59.093Z,4.35
2023-04-15T19:09:26.424Z,3.17
2023-04-15T19:11:53.631Z,3.83
2023-04-15T19:14:20.993Z,3.97
2023-04-15T19:16:48.204Z,3.45
2023-04-15T19:19:15.922Z,4.32
2023-04-15T19:21:43.233Z,4.63
2023-04-15T19:24:10.435Z,4.75
2023-04-15T19:26:37.721Z,4.20
2023-04-15T19:29:05.106Z,3.45
2023-04-15T19:31:32.537Z,4.65
2023-04-15T19:34:00.739Z,4.47
2023-04-15T19:36:28.629Z,5.13
2023-04-15T19:38:55.926Z,4.40
2023-04-15T19:41:23.239Z,5.30
2023-04-15T19:43:50.658Z,6.15
2023-04-15T19:46:18.228Z,5.30
2023-04-15T19:48:45.511Z,5.53
2023-04-15T19:51:12.887Z,6.05
2023-04-15T19:53:40.978Z,6.40
2023-04-15T19:56:08.112Z,4.63
2023-04-15T19:58:35.395Z,6.95
2023-04-15T20:01:02.545Z,6.57
2023-04-15T20:03:29.910Z,8.18
2023-04-15T20:05:57.217Z,6.78
2023-04-15T20:08:24.375Z,7.13
2023-04-15T20:10:51.493Z,7.20
2023-04-15T20:13:18.670Z,7.63
2023-04-15T20:15:46.112Z,6.97
2023-04-15T20:18:13.411Z,6.70
2023-04-15T20:20:41.030Z,7.25
2023-04-15T20:23:08.211Z,7.25
2023-04-15T20:25:35.449Z,6.68
2023-04-15T20:28:02.804Z,5.60
2023-04-15T20:30:29.934Z,5.85
2023-04-15T20:32:57.519Z,5.38
2023-04-15T20:35:28.207Z,6.72
2023-04-15T20:37:55.516Z,5.90
2023-04-15T20:40:23.137Z,6.40
2023-04-15T20:42:50.247Z,5.72
2023-04-15T20:45:17.693Z,5.45
2023-04-15T20:47:45.029Z,5.45
2023-04-15T20:50:12.293Z,5.90
2023-04-15T20:52:40.164Z,6.20
2023-04-15T20:55:08.079Z,5.82
2023-04-15T20:57:35.560Z,5.13
2023-04-15T21:00:02.903Z,5.18
2023-04-15T21:02:33.049Z,5.78
2023-04-15T21:05:00.589Z,4.43
2023-04-15T21:07:27.904Z,4.70
2023-04-15T21:09:57.995Z,5.38
2023-04-15T21:12:25.257Z,4.70
2023-04-15T21:14:52.561Z,5.10
2023-04-15T21:17:19.761Z,4.55
2023-04-15T21:19:47.004Z,4.63
2023-04-15T21:22:14.255Z,6.00
2023-04-15T21:24:41.396Z,4.72
2023-04-15T21:27:09.992Z,4.55
2023-04-15T21:29:40.290Z,5.00
2023-04-15T21:32:07.692Z,4.50
2023-04-15T21:34:35.027Z,4.40
2023-04-15T21:37:02.459Z,4.15
2023-04-15T21:39:29.747Z,4.47
2023-04-15T21:41:58.012Z,4.55
2023-04-15T21:44:25.381Z,4.03
2023-04-15T21:46:52.733Z,4.47
2023-04-15T21:49:20.564Z,4.53
2023-04-15T21:51:48.250Z,3.95
2023-04-15T21:54:15.811Z,4.32
2023-04-15T21:56:43.250Z,3.83
2023-04-15T21:59:10.475Z,3.97
2023-04-15T22:01:37.833Z,5.35
2023-04-15T22:04:07.546Z,3.58
2023-04-15T22:06:34.956Z,4.93
2023-04-15T22:09:02.150Z,3.70
2023-04-15T22:11:30.981Z,4.13
2023-04-15T22:13:59.172Z,4.13
2023-04-15T22:16:27.092Z,3.55
2023-04-15T22:18:55.626Z,3.42
2023-04-15T22:21:23.300Z,3.72
2023-04-15T22:23:51.479Z,4.30
2023-04-15T22:26:18.679Z,3.88
2023-04-15T22:28:45.863Z,4.05
2023-04-15T22:31:13.835Z,4.00
2023-04-15T22:33:41.059Z,4.45
2023-04-15T22:36:08.276Z,4.60
2023-04-15T22:38:36.240Z,4.45
2023-04-15T22:41:03.486Z,4.38
2023-04-15T22:43:30.645Z,4.15
2023-04-15T22:45:57.947Z,4.43
2023-04-15T22:48:25.138Z,4.53
2023-04-15T22:50:52.795Z,4.00
2023-04-15T22:53:20.202Z,4.03
2023-04-15T22:55:48.343Z,3.30
2023-04-15T22:58:18.393Z,4.43
2023-04-15T23:00:46.200Z,4.63
2023-04-15T23:03:13.561Z,3.97
2023-04-15T23:05:41.440Z,4.47
2023-04-15T23:08:08.798Z,4.22
2023-04-15T23:10:36.009Z,3.88
2023-04-15T23:13:03.172Z,4.18
2023-04-15T23:15:30.416Z,4.07
2023-04-15T23:17:57.806Z,3.95
2023-04-15T23:20:24.991Z,4.40
2023-04-15T23:22:52.140Z,4.10
2023-04-15T23:25:22.349Z,4.10
2023-04-15T23:27:49.645Z,4.15
2023-04-15T23:30:16.909Z,4.43
2023-04-15T23:32:44.083Z,4.40
2023-04-15T23:35:11.377Z,4.88
2023-04-15T23:37:38.659Z,5.00
2023-04-15T23:40:06.662Z,4.63
2023-04-15T23:42:33.885Z,4.38
2023-04-15T23:45:01.018Z,4.80
2023-04-15T23:47:28.392Z,4.15
2023-04-15T23:49:55.582Z,4.55
2023-04-15T23:52:23.012Z,4.57
2023-04-15T23:54:50.412Z,4.93
2023-04-15T23:57:18.824Z,5.00
2023-04-15T23:59:46.321Z,4.93
